sensor_id;sensor_type;location;lat;lon;timestamp;P1;durP1;ratioP1;P2;durP2;ratioP2
35478;SDS011;21594;49.794;18.652;2022-08-19T00:01:33;10.23;;;9.13;;
35478;SDS011;21594;49.794;18.652;2022-08-19T00:04:03;13.13;;;9.88;;
35478;SDS011;21594;49.794;18.652;2022-08-19T00:06:33;12.15;;;8.65;;
35478;SDS011;21594;49.794;18.652;2022-08-19T00:09:00;13.00;;;9.48;;
35478;SDS011;21594;49.794;18.652;2022-08-19T00:11:28;10.55;;;8.70;;
35478;SDS011;21594;49.794;18.652;2022-08-19T00:13:55;11.33;;;9.30;;
35478;SDS011;21594;49.794;18.652;2022-08-19T00:16:24;14.28;;;8.70;;
35478;SDS011;21594;49.794;18.652;2022-08-19T00:18:50;11.65;;;10.08;;
35478;SDS011;21594;49.794;18.652;2022-08-19T00:21:17;12.40;;;8.88;;
35478;SDS011;21594;49.794;18.652;2022-08-19T00:23:43;12.65;;;8.93;;
35478;SDS011;21594;49.794;18.652;2022-08-19T00:26:10;11.45;;;9.40;;
35478;SDS011;21594;49.794;18.652;2022-08-19T00:28:37;12.18;;;9.38;;
35478;SDS011;21594;49.794;18.652;2022-08-19T00:31:04;11.10;;;9.35;;
35478;SDS011;21594;49.794;18.652;2022-08-19T00:33:32;12.47;;;9.25;;
35478;SDS011;21594;49.794;18.652;2022-08-19T00:35:59;31.17;;;18.02;;
35478;SDS011;21594;49.794;18.652;2022-08-19T00:38:26;18.98;;;12.73;;
35478;SDS011;21594;49.794;18.652;2022-08-19T00:40:53;15.03;;;12.05;;
35478;SDS011;21594;49.794;18.652;2022-08-19T00:43:20;15.28;;;11.10;;
35478;SDS011;21594;49.794;18.652;2022-08-19T00:45:49;14.98;;;10.70;;
35478;SDS011;21594;49.794;18.652;2022-08-19T00:48:17;12.50;;;10.10;;
35478;SDS011;21594;49.794;18.652;2022-08-19T00:50:46;12.70;;;9.50;;
35478;SDS011;21594;49.794;18.652;2022-08-19T00:53:16;11.57;;;9.15;;
35478;SDS011;21594;49.794;18.652;2022-08-19T00:55:45;12.68;;;9.75;;
35478;SDS011;21594;49.794;18.652;2022-08-19T00:58:18;12.88;;;9.23;;
35478;SDS011;21594;49.794;18.652;2022-08-19T01:00:46;13.30;;;9.20;;
35478;SDS011;21594;49.794;18.652;2022-08-19T01:03:15;11.40;;;8.78;;
35478;SDS011;21594;49.794;18.652;2022-08-19T01:05:44;9.05;;;7.83;;
35478;SDS011;21594;49.794;18.652;2022-08-19T01:08:11;11.38;;;8.68;;
35478;SDS011;21594;49.794;18.652;2022-08-19T01:10:44;11.83;;;8.78;;
35478;SDS011;21594;49.794;18.652;2022-08-19T01:13:14;11.12;;;8.35;;
35478;SDS011;21594;49.794;18.652;2022-08-19T01:15:48;12.82;;;8.58;;
35478;SDS011;21594;49.794;18.652;2022-08-19T01:18:14;11.22;;;8.40;;
35478;SDS011;21594;49.794;18.652;2022-08-19T01:20:42;12.03;;;8.20;;
35478;SDS011;21594;49.794;18.652;2022-08-19T01:23:09;10.03;;;8.43;;
35478;SDS011;21594;49.794;18.652;2022-08-19T01:25:39;10.15;;;7.90;;
35478;SDS011;21594;49.794;18.652;2022-08-19T01:30:44;9.80;;;7.93;;
35478;SDS011;21594;49.794;18.652;2022-08-19T02:10:05;10.70;;;7.80;;
35478;SDS011;21594;49.794;18.652;2022-08-19T02:12:39;9.70;;;8.10;;
35478;SDS011;21594;49.794;18.652;2022-08-19T02:15:05;8.83;;;7.92;;
35478;SDS011;21594;49.794;18.652;2022-08-19T02:17:36;10.20;;;7.80;;
35478;SDS011;21594;49.794;18.652;2022-08-19T02:20:06;9.08;;;8.08;;
35478;SDS011;21594;49.794;18.652;2022-08-19T02:22:33;11.50;;;8.50;;
35478;SDS011;21594;49.794;18.652;2022-08-19T02:25:00;12.03;;;8.43;;
35478;SDS011;21594;49.794;18.652;2022-08-19T02:27:26;10.98;;;7.55;;
35478;SDS011;21594;49.794;18.652;2022-08-19T02:29:52;8.90;;;7.70;;
35478;SDS011;21594;49.794;18.652;2022-08-19T02:32:19;10.88;;;8.20;;
35478;SDS011;21594;49.794;18.652;2022-08-19T02:34:45;9.63;;;8.33;;
35478;SDS011;21594;49.794;18.652;2022-08-19T02:37:13;9.08;;;7.65;;
35478;SDS011;21594;49.794;18.652;2022-08-19T02:39:58;11.50;;;7.42;;
35478;SDS011;21594;49.794;18.652;2022-08-19T02:42:25;8.93;;;6.17;;
35478;SDS011;21594;49.794;18.652;2022-08-19T02:44:55;8.85;;;6.67;;
35478;SDS011;21594;49.794;18.652;2022-08-19T02:47:21;7.85;;;7.05;;
35478;SDS011;21594;49.794;18.652;2022-08-19T02:49:48;9.20;;;7.12;;
35478;SDS011;21594;49.794;18.652;2022-08-19T02:52:15;9.58;;;7.22;;
35478;SDS011;21594;49.794;18.652;2022-08-19T02:54:44;9.28;;;7.67;;
35478;SDS011;21594;49.794;18.652;2022-08-19T02:57:11;9.83;;;7.72;;
35478;SDS011;21594;49.794;18.652;2022-08-19T02:59:38;9.85;;;7.22;;
35478;SDS011;21594;49.794;18.652;2022-08-19T03:02:05;12.00;;;6.70;;
35478;SDS011;21594;49.794;18.652;2022-08-19T03:04:31;7.70;;;6.55;;
35478;SDS011;21594;49.794;18.652;2022-08-19T03:06:58;9.20;;;6.78;;
35478;SDS011;21594;49.794;18.652;2022-08-19T03:09:24;10.23;;;6.83;;
35478;SDS011;21594;49.794;18.652;2022-08-19T03:11:50;9.88;;;7.22;;
35478;SDS011;21594;49.794;18.652;2022-08-19T03:14:16;10.28;;;8.00;;
35478;SDS011;21594;49.794;18.652;2022-08-19T03:16:44;10.18;;;8.53;;
35478;SDS011;21594;49.794;18.652;2022-08-19T03:19:13;10.85;;;8.38;;
35478;SDS011;21594;49.794;18.652;2022-08-19T03:21:42;10.95;;;8.08;;
35478;SDS011;21594;49.794;18.652;2022-08-19T03:24:10;9.38;;;8.28;;
35478;SDS011;21594;49.794;18.652;2022-08-19T03:26:47;10.78;;;8.68;;
35478;SDS011;21594;49.794;18.652;2022-08-19T03:29:19;10.00;;;8.80;;
35478;SDS011;21594;49.794;18.652;2022-08-19T03:31:48;9.23;;;7.83;;
35478;SDS011;21594;49.794;18.652;2022-08-19T03:34:17;12.95;;;8.60;;
35478;SDS011;21594;49.794;18.652;2022-08-19T03:36:48;12.33;;;8.10;;
35478;SDS011;21594;49.794;18.652;2022-08-19T03:39:14;13.55;;;8.40;;
35478;SDS011;21594;49.794;18.652;2022-08-19T03:41:41;10.78;;;8.63;;
35478;SDS011;21594;49.794;18.652;2022-08-19T03:44:10;11.65;;;8.45;;
35478;SDS011;21594;49.794;18.652;2022-08-19T03:46:37;11.05;;;7.92;;
35478;SDS011;21594;49.794;18.652;2022-08-19T03:49:03;9.80;;;8.35;;
35478;SDS011;21594;49.794;18.652;2022-08-19T03:51:35;10.03;;;8.53;;
35478;SDS011;21594;49.794;18.652;2022-08-19T03:54:05;10.67;;;8.40;;
35478;SDS011;21594;49.794;18.652;2022-08-19T03:56:34;13.22;;;9.15;;
35478;SDS011;21594;49.794;18.652;2022-08-19T03:59:02;10.98;;;7.85;;
35478;SDS011;21594;49.794;18.652;2022-08-19T04:01:29;10.48;;;8.45;;
35478;SDS011;21594;49.794;18.652;2022-08-19T04:03:56;9.83;;;8.08;;
35478;SDS011;21594;49.794;18.652;2022-08-19T04:06:28;11.50;;;8.18;;
35478;SDS011;21594;49.794;18.652;2022-08-19T04:08:58;9.03;;;7.60;;
35478;SDS011;21594;49.794;18.652;2022-08-19T04:11:49;7.70;;;6.72;;
35478;SDS011;21594;49.794;18.652;2022-08-19T04:14:25;8.15;;;5.92;;
35478;SDS011;21594;49.794;18.652;2022-08-19T04:16:58;7.15;;;6.42;;
35478;SDS011;21594;49.794;18.652;2022-08-19T04:19:26;7.03;;;6.33;;
35478;SDS011;21594;49.794;18.652;2022-08-19T04:21:52;8.05;;;6.10;;
35478;SDS011;21594;49.794;18.652;2022-08-19T04:24:20;10.20;;;6.00;;
35478;SDS011;21594;49.794;18.652;2022-08-19T04:26:49;7.47;;;5.58;;
35478;SDS011;21594;49.794;18.652;2022-08-19T04:29:24;7.70;;;6.00;;
35478;SDS011;21594;49.794;18.652;2022-08-19T04:31:50;8.73;;;5.60;;
35478;SDS011;21594;49.794;18.652;2022-08-19T04:34:19;7.50;;;5.70;;
35478;SDS011;21594;49.794;18.652;2022-08-19T04:36:47;6.15;;;5.25;;
35478;SDS011;21594;49.794;18.652;2022-08-19T04:39:17;7.55;;;5.75;;
35478;SDS011;21594;49.794;18.652;2022-08-19T04:41:46;7.78;;;5.28;;
35478;SDS011;21594;49.794;18.652;2022-08-19T04:44:33;7.30;;;6.15;;
35478;SDS011;21594;49.794;18.652;2022-08-19T04:47:01;9.13;;;6.60;;
35478;SDS011;21594;49.794;18.652;2022-08-19T04:49:31;7.60;;;5.55;;
35478;SDS011;21594;49.794;18.652;2022-08-19T04:51:57;6.90;;;5.65;;
35478;SDS011;21594;49.794;18.652;2022-08-19T04:54:24;5.90;;;5.17;;
35478;SDS011;21594;49.794;18.652;2022-08-19T04:56:52;7.78;;;5.78;;
35478;SDS011;21594;49.794;18.652;2022-08-19T04:59:19;8.28;;;5.87;;
35478;SDS011;21594;49.794;18.652;2022-08-19T05:01:46;7.03;;;5.15;;
35478;SDS011;21594;49.794;18.652;2022-08-19T05:04:18;6.33;;;5.72;;
35478;SDS011;21594;49.794;18.652;2022-08-19T05:06:48;5.90;;;5.22;;
35478;SDS011;21594;49.794;18.652;2022-08-19T05:16:45;7.90;;;5.00;;
35478;SDS011;21594;49.794;18.652;2022-08-19T05:19:11;8.30;;;5.22;;
35478;SDS011;21594;49.794;18.652;2022-08-19T05:21:56;7.50;;;4.97;;
35478;SDS011;21594;49.794;18.652;2022-08-19T05:24:41;10.95;;;5.62;;
35478;SDS011;21594;49.794;18.652;2022-08-19T05:27:07;9.60;;;4.95;;
35478;SDS011;21594;49.794;18.652;2022-08-19T05:29:33;7.30;;;5.12;;
35478;SDS011;21594;49.794;18.652;2022-08-19T05:32:01;5.65;;;5.05;;
35478;SDS011;21594;49.794;18.652;2022-08-19T05:34:30;6.35;;;5.08;;
35478;SDS011;21594;49.794;18.652;2022-08-19T05:36:59;7.50;;;5.80;;
35478;SDS011;21594;49.794;18.652;2022-08-19T05:39:28;7.55;;;5.05;;
35478;SDS011;21594;49.794;18.652;2022-08-19T05:41:57;5.75;;;4.97;;
35478;SDS011;21594;49.794;18.652;2022-08-19T05:44:25;7.22;;;5.55;;
35478;SDS011;21594;49.794;18.652;2022-08-19T05:46:55;6.92;;;5.33;;
35478;SDS011;21594;49.794;18.652;2022-08-19T05:49:22;7.37;;;5.15;;
35478;SDS011;21594;49.794;18.652;2022-08-19T05:51:48;6.58;;;5.40;;
35478;SDS011;21594;49.794;18.652;2022-08-19T05:54:15;10.78;;;5.25;;
35478;SDS011;21594;49.794;18.652;2022-08-19T05:56:42;7.15;;;5.75;;
35478;SDS011;21594;49.794;18.652;2022-08-19T06:01:45;6.50;;;5.58;;
35478;SDS011;21594;49.794;18.652;2022-08-19T06:04:12;8.18;;;5.22;;
35478;SDS011;21594;49.794;18.652;2022-08-19T06:06:39;9.08;;;5.40;;
35478;SDS011;21594;49.794;18.652;2022-08-19T06:09:06;8.33;;;5.22;;
35478;SDS011;21594;49.794;18.652;2022-08-19T06:14:09;6.67;;;4.97;;
35478;SDS011;21594;49.794;18.652;2022-08-19T06:16:43;6.75;;;5.78;;
35478;SDS011;21594;49.794;18.652;2022-08-19T06:19:16;7.58;;;5.53;;
35478;SDS011;21594;49.794;18.652;2022-08-19T06:21:43;9.65;;;6.55;;
35478;SDS011;21594;49.794;18.652;2022-08-19T06:24:14;6.87;;;6.05;;
35478;SDS011;21594;49.794;18.652;2022-08-19T06:26:44;5.78;;;5.15;;
35478;SDS011;21594;49.794;18.652;2022-08-19T06:29:12;7.78;;;6.15;;
35478;SDS011;21594;49.794;18.652;2022-08-19T06:31:41;8.03;;;5.47;;
35478;SDS011;21594;49.794;18.652;2022-08-19T06:34:09;6.95;;;5.22;;
35478;SDS011;21594;49.794;18.652;2022-08-19T06:36:37;9.93;;;5.58;;
35478;SDS011;21594;49.794;18.652;2022-08-19T06:39:07;6.58;;;4.83;;
35478;SDS011;21594;49.794;18.652;2022-08-19T06:41:36;7.90;;;5.05;;
35478;SDS011;21594;49.794;18.652;2022-08-19T06:44:04;7.62;;;5.00;;
35478;SDS011;21594;49.794;18.652;2022-08-19T06:46:31;6.22;;;5.17;;
35478;SDS011;21594;49.794;18.652;2022-08-19T06:48:57;6.62;;;5.00;;
35478;SDS011;21594;49.794;18.652;2022-08-19T06:51:24;9.03;;;5.65;;
35478;SDS011;21594;49.794;18.652;2022-08-19T06:53:52;7.17;;;4.85;;
35478;SDS011;21594;49.794;18.652;2022-08-19T06:56:21;5.85;;;5.22;;
35478;SDS011;21594;49.794;18.652;2022-08-19T06:58:50;10.90;;;5.60;;
35478;SDS011;21594;49.794;18.652;2022-08-19T07:01:18;7.28;;;4.70;;
35478;SDS011;21594;49.794;18.652;2022-08-19T07:03:45;6.10;;;5.22;;
35478;SDS011;21594;49.794;18.652;2022-08-19T07:06:15;6.50;;;5.35;;
35478;SDS011;21594;49.794;18.652;2022-08-19T07:11:13;7.87;;;5.50;;
35478;SDS011;21594;49.794;18.652;2022-08-19T07:13:43;8.03;;;4.97;;
35478;SDS011;21594;49.794;18.652;2022-08-19T07:16:12;7.65;;;5.45;;
35478;SDS011;21594;49.794;18.652;2022-08-19T07:18:40;5.87;;;5.10;;
35478;SDS011;21594;49.794;18.652;2022-08-19T07:21:08;9.88;;;4.72;;
35478;SDS011;21594;49.794;18.652;2022-08-19T07:23:50;7.05;;;5.55;;
35478;SDS011;21594;49.794;18.652;2022-08-19T07:26:06;6.55;;;5.10;;
35478;SDS011;21594;49.794;18.652;2022-08-19T07:28:40;8.58;;;5.15;;
35478;SDS011;21594;49.794;18.652;2022-08-19T07:31:17;6.83;;;5.47;;
35478;SDS011;21594;49.794;18.652;2022-08-19T07:33:43;5.90;;;5.30;;
35478;SDS011;21594;49.794;18.652;2022-08-19T07:36:14;8.60;;;5.35;;
35478;SDS011;21594;49.794;18.652;2022-08-19T07:38:43;8.25;;;5.87;;
35478;SDS011;21594;49.794;18.652;2022-08-19T07:41:13;8.73;;;5.30;;
35478;SDS011;21594;49.794;18.652;2022-08-19T07:43:43;10.32;;;5.40;;
35478;SDS011;21594;49.794;18.652;2022-08-19T07:46:10;6.25;;;5.20;;
35478;SDS011;21594;49.794;18.652;2022-08-19T07:48:36;9.63;;;5.33;;
35478;SDS011;21594;49.794;18.652;2022-08-19T07:51:03;6.42;;;5.20;;
35478;SDS011;21594;49.794;18.652;2022-08-19T07:53:33;5.55;;;4.83;;
35478;SDS011;21594;49.794;18.652;2022-08-19T07:56:02;7.30;;;4.90;;
35478;SDS011;21594;49.794;18.652;2022-08-19T07:58:30;9.13;;;5.42;;
35478;SDS011;21594;49.794;18.652;2022-08-19T08:00:59;7.37;;;5.40;;
35478;SDS011;21594;49.794;18.652;2022-08-19T08:03:28;6.05;;;5.35;;
35478;SDS011;21594;49.794;18.652;2022-08-19T08:06:13;8.48;;;5.00;;
35478;SDS011;21594;49.794;18.652;2022-08-19T08:09:00;8.08;;;5.25;;
35478;SDS011;21594;49.794;18.652;2022-08-19T08:14:07;5.40;;;4.90;;
35478;SDS011;21594;49.794;18.652;2022-08-19T08:16:36;6.47;;;4.85;;
35478;SDS011;21594;49.794;18.652;2022-08-19T08:19:04;5.78;;;5.08;;
35478;SDS011;21594;49.794;18.652;2022-08-19T08:21:32;7.47;;;5.12;;
35478;SDS011;21594;49.794;18.652;2022-08-19T08:24:00;7.15;;;5.35;;
35478;SDS011;21594;49.794;18.652;2022-08-19T08:26:27;6.05;;;5.45;;
35478;SDS011;21594;49.794;18.652;2022-08-19T08:28:53;7.12;;;5.30;;
35478;SDS011;21594;49.794;18.652;2022-08-19T08:31:19;7.78;;;5.53;;
35478;SDS011;21594;49.794;18.652;2022-08-19T08:33:46;7.15;;;5.28;;
35478;SDS011;21594;49.794;18.652;2022-08-19T08:36:17;7.85;;;5.00;;
35478;SDS011;21594;49.794;18.652;2022-08-19T08:38:41;7.53;;;4.90;;
35478;SDS011;21594;49.794;18.652;2022-08-19T08:41:16;9.00;;;5.58;;
35478;SDS011;21594;49.794;18.652;2022-08-19T08:43:59;7.35;;;5.03;;
35478;SDS011;21594;49.794;18.652;2022-08-19T08:46:33;5.60;;;4.75;;
35478;SDS011;21594;49.794;18.652;2022-08-19T08:51:46;5.58;;;5.00;;
35478;SDS011;21594;49.794;18.652;2022-08-19T08:54:14;5.20;;;4.70;;
35478;SDS011;21594;49.794;18.652;2022-08-19T08:56:47;5.00;;;4.50;;
35478;SDS011;21594;49.794;18.652;2022-08-19T08:59:26;6.47;;;5.20;;
35478;SDS011;21594;49.794;18.652;2022-08-19T09:04:25;7.67;;;4.80;;
35478;SDS011;21594;49.794;18.652;2022-08-19T09:07:13;7.78;;;4.67;;
35478;SDS011;21594;49.794;18.652;2022-08-19T09:09:43;6.47;;;5.27;;
35478;SDS011;21594;49.794;18.652;2022-08-19T09:12:31;6.37;;;5.10;;
35478;SDS011;21594;49.794;18.652;2022-08-19T09:15:06;5.70;;;4.92;;
35478;SDS011;21594;49.794;18.652;2022-08-19T09:17:35;5.75;;;4.92;;
35478;SDS011;21594;49.794;18.652;2022-08-19T09:22:36;6.15;;;5.28;;
35478;SDS011;21594;49.794;18.652;2022-08-19T09:25:04;8.30;;;5.50;;
35478;SDS011;21594;49.794;18.652;2022-08-19T09:27:37;7.03;;;4.97;;
35478;SDS011;21594;49.794;18.652;2022-08-19T09:30:05;9.38;;;5.67;;
35478;SDS011;21594;49.794;18.652;2022-08-19T09:32:33;5.90;;;5.28;;
35478;SDS011;21594;49.794;18.652;2022-08-19T09:34:59;11.25;;;5.50;;
35478;SDS011;21594;49.794;18.652;2022-08-19T09:37:25;8.20;;;5.22;;
35478;SDS011;21594;49.794;18.652;2022-08-19T09:39:52;6.20;;;5.20;;
35478;SDS011;21594;49.794;18.652;2022-08-19T09:42:19;6.62;;;5.25;;
35478;SDS011;21594;49.794;18.652;2022-08-19T09:44:46;10.70;;;5.70;;
35478;SDS011;21594;49.794;18.652;2022-08-19T09:47:12;7.30;;;4.83;;
35478;SDS011;21594;49.794;18.652;2022-08-19T09:49:39;9.68;;;6.12;;
35478;SDS011;21594;49.794;18.652;2022-08-19T09:52:07;7.97;;;5.25;;
35478;SDS011;21594;49.794;18.652;2022-08-19T09:54:36;9.93;;;4.90;;
35478;SDS011;21594;49.794;18.652;2022-08-19T09:57:06;9.45;;;5.33;;
35478;SDS011;21594;49.794;18.652;2022-08-19T09:59:32;7.42;;;5.08;;
35478;SDS011;21594;49.794;18.652;2022-08-19T10:01:59;6.72;;;4.62;;
35478;SDS011;21594;49.794;18.652;2022-08-19T10:04:25;8.00;;;4.87;;
35478;SDS011;21594;49.794;18.652;2022-08-19T10:06:55;7.10;;;4.87;;
35478;SDS011;21594;49.794;18.652;2022-08-19T10:09:22;5.67;;;5.00;;
35478;SDS011;21594;49.794;18.652;2022-08-19T10:11:49;7.05;;;4.42;;
35478;SDS011;21594;49.794;18.652;2022-08-19T10:14:15;5.22;;;4.62;;
35478;SDS011;21594;49.794;18.652;2022-08-19T10:16:42;6.83;;;4.80;;
35478;SDS011;21594;49.794;18.652;2022-08-19T10:19:08;6.33;;;5.45;;
35478;SDS011;21594;49.794;18.652;2022-08-19T10:21:35;7.60;;;5.50;;
35478;SDS011;21594;49.794;18.652;2022-08-19T10:24:03;6.72;;;5.10;;
35478;SDS011;21594;49.794;18.652;2022-08-19T10:26:31;7.25;;;5.40;;
35478;SDS011;21594;49.794;18.652;2022-08-19T10:29:03;6.95;;;5.83;;
35478;SDS011;21594;49.794;18.652;2022-08-19T10:31:32;7.25;;;5.12;;
35478;SDS011;21594;49.794;18.652;2022-08-19T10:34:00;8.35;;;4.70;;
35478;SDS011;21594;49.794;18.652;2022-08-19T10:36:33;6.03;;;4.80;;
35478;SDS011;21594;49.794;18.652;2022-08-19T10:38:57;8.45;;;5.15;;
35478;SDS011;21594;49.794;18.652;2022-08-19T10:41:27;7.22;;;4.65;;
35478;SDS011;21594;49.794;18.652;2022-08-19T10:43:57;6.90;;;5.00;;
35478;SDS011;21594;49.794;18.652;2022-08-19T10:46:25;6.00;;;5.15;;
35478;SDS011;21594;49.794;18.652;2022-08-19T10:48:55;9.78;;;5.12;;
35478;SDS011;21594;49.794;18.652;2022-08-19T10:51:20;5.75;;;4.67;;
35478;SDS011;21594;49.794;18.652;2022-08-19T10:54:06;7.08;;;4.67;;
35478;SDS011;21594;49.794;18.652;2022-08-19T10:56:32;10.98;;;5.25;;
35478;SDS011;21594;49.794;18.652;2022-08-19T11:01:54;7.35;;;4.80;;
35478;SDS011;21594;49.794;18.652;2022-08-19T11:04:24;7.83;;;4.65;;
35478;SDS011;21594;49.794;18.652;2022-08-19T11:06:50;7.30;;;4.87;;
35478;SDS011;21594;49.794;18.652;2022-08-19T11:09:17;5.70;;;4.28;;
35478;SDS011;21594;49.794;18.652;2022-08-19T11:11:46;9.20;;;4.90;;
35478;SDS011;21594;49.794;18.652;2022-08-19T11:14:14;7.20;;;5.08;;
35478;SDS011;21594;49.794;18.652;2022-08-19T11:16:41;6.83;;;4.72;;
35478;SDS011;21594;49.794;18.652;2022-08-19T11:19:08;6.53;;;4.78;;
35478;SDS011;21594;49.794;18.652;2022-08-19T11:21:39;7.05;;;4.60;;
35478;SDS011;21594;49.794;18.652;2022-08-19T11:24:09;6.70;;;4.45;;
35478;SDS011;21594;49.794;18.652;2022-08-19T11:26:38;9.93;;;4.72;;
35478;SDS011;21594;49.794;18.652;2022-08-19T11:29:07;7.53;;;4.55;;
35478;SDS011;21594;49.794;18.652;2022-08-19T11:31:39;6.42;;;4.60;;
35478;SDS011;21594;49.794;18.652;2022-08-19T11:34:08;7.20;;;5.12;;
35478;SDS011;21594;49.794;18.652;2022-08-19T11:36:38;7.03;;;5.07;;
35478;SDS011;21594;49.794;18.652;2022-08-19T11:39:06;8.33;;;5.10;;
35478;SDS011;21594;49.794;18.652;2022-08-19T11:41:33;8.53;;;4.50;;
35478;SDS011;21594;49.794;18.652;2022-08-19T11:44:00;6.80;;;4.62;;
35478;SDS011;21594;49.794;18.652;2022-08-19T11:46:28;7.53;;;4.53;;
35478;SDS011;21594;49.794;18.652;2022-08-19T11:48:55;9.08;;;4.90;;
35478;SDS011;21594;49.794;18.652;2022-08-19T11:51:22;5.90;;;5.00;;
35478;SDS011;21594;49.794;18.652;2022-08-19T11:53:53;8.63;;;4.40;;
35478;SDS011;21594;49.794;18.652;2022-08-19T11:56:20;6.85;;;4.28;;
35478;SDS011;21594;49.794;18.652;2022-08-19T11:58:47;8.18;;;4.62;;
35478;SDS011;21594;49.794;18.652;2022-08-19T12:01:15;5.05;;;4.10;;
35478;SDS011;21594;49.794;18.652;2022-08-19T12:03:44;5.67;;;4.28;;
35478;SDS011;21594;49.794;18.652;2022-08-19T12:06:21;7.35;;;4.37;;
35478;SDS011;21594;49.794;18.652;2022-08-19T12:08:51;6.83;;;3.92;;
35478;SDS011;21594;49.794;18.652;2022-08-19T12:11:17;6.28;;;4.10;;
35478;SDS011;21594;49.794;18.652;2022-08-19T12:13:45;11.38;;;4.70;;
35478;SDS011;21594;49.794;18.652;2022-08-19T12:16:17;6.37;;;4.17;;
35478;SDS011;21594;49.794;18.652;2022-08-19T12:18:47;5.28;;;4.10;;
35478;SDS011;21594;49.794;18.652;2022-08-19T12:21:14;11.08;;;4.30;;
35478;SDS011;21594;49.794;18.652;2022-08-19T12:23:46;5.87;;;4.00;;
35478;SDS011;21594;49.794;18.652;2022-08-19T12:26:14;6.40;;;5.00;;
35478;SDS011;21594;49.794;18.652;2022-08-19T12:28:40;5.83;;;4.70;;
35478;SDS011;21594;49.794;18.652;2022-08-19T12:31:08;7.72;;;5.17;;
35478;SDS011;21594;49.794;18.652;2022-08-19T12:33:37;8.63;;;4.72;;
35478;SDS011;21594;49.794;18.652;2022-08-19T12:36:04;7.40;;;4.40;;
35478;SDS011;21594;49.794;18.652;2022-08-19T12:38:33;6.72;;;3.95;;
35478;SDS011;21594;49.794;18.652;2022-08-19T12:41:00;7.47;;;4.03;;
35478;SDS011;21594;49.794;18.652;2022-08-19T12:43:28;7.00;;;3.92;;
35478;SDS011;21594;49.794;18.652;2022-08-19T12:45:58;5.67;;;3.50;;
35478;SDS011;21594;49.794;18.652;2022-08-19T12:48:25;7.78;;;3.40;;
35478;SDS011;21594;49.794;18.652;2022-08-19T12:50:52;7.30;;;4.20;;
35478;SDS011;21594;49.794;18.652;2022-08-19T12:53:18;10.00;;;3.92;;
35478;SDS011;21594;49.794;18.652;2022-08-19T12:55:45;7.80;;;3.92;;
35478;SDS011;21594;49.794;18.652;2022-08-19T12:58:11;12.98;;;4.72;;
35478;SDS011;21594;49.794;18.652;2022-08-19T13:00:38;5.37;;;3.75;;
35478;SDS011;21594;49.794;18.652;2022-08-19T13:03:07;8.03;;;4.20;;
35478;SDS011;21594;49.794;18.652;2022-08-19T13:05:33;7.28;;;3.58;;
35478;SDS011;21594;49.794;18.652;2022-08-19T13:08:00;6.10;;;3.70;;
35478;SDS011;21594;49.794;18.652;2022-08-19T13:10:31;4.65;;;3.55;;
35478;SDS011;21594;49.794;18.652;2022-08-19T13:12:58;5.78;;;3.67;;
35478;SDS011;21594;49.794;18.652;2022-08-19T13:15:25;5.85;;;3.90;;
35478;SDS011;21594;49.794;18.652;2022-08-19T13:17:54;6.45;;;3.50;;
35478;SDS011;21594;49.794;18.652;2022-08-19T13:20:21;8.20;;;3.77;;
35478;SDS011;21594;49.794;18.652;2022-08-19T13:22:54;7.35;;;3.95;;
35478;SDS011;21594;49.794;18.652;2022-08-19T13:25:22;6.62;;;4.20;;
35478;SDS011;21594;49.794;18.652;2022-08-19T13:27:50;7.85;;;4.05;;
35478;SDS011;21594;49.794;18.652;2022-08-19T13:30:18;6.10;;;3.50;;
35478;SDS011;21594;49.794;18.652;2022-08-19T13:33:03;7.22;;;4.35;;
35478;SDS011;21594;49.794;18.652;2022-08-19T13:35:56;7.10;;;4.10;;
35478;SDS011;21594;49.794;18.652;2022-08-19T13:38:26;7.22;;;4.08;;
35478;SDS011;21594;49.794;18.652;2022-08-19T13:40:54;11.25;;;4.50;;
35478;SDS011;21594;49.794;18.652;2022-08-19T13:43:23;7.95;;;4.62;;
35478;SDS011;21594;49.794;18.652;2022-08-19T13:45:52;8.90;;;4.47;;
35478;SDS011;21594;49.794;18.652;2022-08-19T13:48:21;6.15;;;3.80;;
35478;SDS011;21594;49.794;18.652;2022-08-19T13:50:48;10.43;;;4.25;;
35478;SDS011;21594;49.794;18.652;2022-08-19T13:53:15;10.03;;;4.10;;
35478;SDS011;21594;49.794;18.652;2022-08-19T13:55:43;6.83;;;3.77;;
35478;SDS011;21594;49.794;18.652;2022-08-19T13:58:10;4.12;;;3.60;;
35478;SDS011;21594;49.794;18.652;2022-08-19T14:00:38;9.00;;;4.00;;
35478;SDS011;21594;49.794;18.652;2022-08-19T14:03:06;7.17;;;3.67;;
35478;SDS011;21594;49.794;18.652;2022-08-19T14:05:33;4.95;;;3.27;;
35478;SDS011;21594;49.794;18.652;2022-08-19T14:08:00;8.93;;;3.58;;
35478;SDS011;21594;49.794;18.652;2022-08-19T14:10:28;10.80;;;3.72;;
35478;SDS011;21594;49.794;18.652;2022-08-19T14:12:57;8.65;;;4.15;;
35478;SDS011;21594;49.794;18.652;2022-08-19T14:15:25;7.08;;;4.10;;
35478;SDS011;21594;49.794;18.652;2022-08-19T14:17:51;6.67;;;4.28;;
35478;SDS011;21594;49.794;18.652;2022-08-19T14:20:20;6.92;;;3.77;;
35478;SDS011;21594;49.794;18.652;2022-08-19T14:22:48;9.88;;;4.05;;
35478;SDS011;21594;49.794;18.652;2022-08-19T14:25:17;9.08;;;3.60;;
35478;SDS011;21594;49.794;18.652;2022-08-19T14:27:45;7.78;;;4.28;;
35478;SDS011;21594;49.794;18.652;2022-08-19T14:30:13;11.48;;;4.95;;
35478;SDS011;21594;49.794;18.652;2022-08-19T14:32:44;7.53;;;4.35;;
35478;SDS011;21594;49.794;18.652;2022-08-19T14:35:11;7.15;;;4.55;;
35478;SDS011;21594;49.794;18.652;2022-08-19T14:37:39;7.33;;;3.62;;
35478;SDS011;21594;49.794;18.652;2022-08-19T14:40:07;7.60;;;3.90;;
35478;SDS011;21594;49.794;18.652;2022-08-19T14:42:33;7.25;;;3.70;;
35478;SDS011;21594;49.794;18.652;2022-08-19T14:45:00;8.05;;;4.22;;
35478;SDS011;21594;49.794;18.652;2022-08-19T14:47:26;5.60;;;3.90;;
35478;SDS011;21594;49.794;18.652;2022-08-19T14:49:53;5.55;;;3.83;;
35478;SDS011;21594;49.794;18.652;2022-08-19T14:52:20;6.70;;;3.95;;
35478;SDS011;21594;49.794;18.652;2022-08-19T14:54:46;10.80;;;4.20;;
35478;SDS011;21594;49.794;18.652;2022-08-19T14:57:13;7.22;;;4.20;;
35478;SDS011;21594;49.794;18.652;2022-08-19T14:59:44;9.33;;;3.87;;
35478;SDS011;21594;49.794;18.652;2022-08-19T15:02:10;9.43;;;4.17;;
35478;SDS011;21594;49.794;18.652;2022-08-19T15:04:37;6.25;;;4.47;;
35478;SDS011;21594;49.794;18.652;2022-08-19T15:07:04;12.33;;;5.00;;
35478;SDS011;21594;49.794;18.652;2022-08-19T15:09:31;6.85;;;3.80;;
35478;SDS011;21594;49.794;18.652;2022-08-19T15:11:59;7.87;;;4.42;;
35478;SDS011;21594;49.794;18.652;2022-08-19T15:14:28;9.98;;;4.25;;
35478;SDS011;21594;49.794;18.652;2022-08-19T15:16:56;7.33;;;4.37;;
35478;SDS011;21594;49.794;18.652;2022-08-19T15:19:28;9.30;;;4.78;;
35478;SDS011;21594;49.794;18.652;2022-08-19T15:21:55;10.30;;;4.60;;
35478;SDS011;21594;49.794;18.652;2022-08-19T15:24:22;10.80;;;4.90;;
35478;SDS011;21594;49.794;18.652;2022-08-19T15:26:51;12.80;;;5.15;;
35478;SDS011;21594;49.794;18.652;2022-08-19T15:29:18;9.75;;;4.30;;
35478;SDS011;21594;49.794;18.652;2022-08-19T15:31:45;10.85;;;4.58;;
35478;SDS011;21594;49.794;18.652;2022-08-19T15:36:40;12.15;;;5.05;;
35478;SDS011;21594;49.794;18.652;2022-08-19T15:39:06;7.58;;;4.70;;
35478;SDS011;21594;49.794;18.652;2022-08-19T15:41:34;11.22;;;5.05;;
35478;SDS011;21594;49.794;18.652;2022-08-19T15:44:02;12.98;;;4.70;;
35478;SDS011;21594;49.794;18.652;2022-08-19T15:46:33;12.23;;;4.60;;
35478;SDS011;21594;49.794;18.652;2022-08-19T15:49:01;10.50;;;5.55;;
35478;SDS011;21594;49.794;18.652;2022-08-19T15:51:29;11.33;;;4.45;;